KMCO/MCO METAR and TAF weather

Enter ICAO airport designator
Station Type Date Time Source
KMCO METAR 2023/09/28 20:53 UTC NOAA

KMCO 282053Z 01012KT 4SM R35L/5000VP6000FT -RA BR BKN011 BKN036 26/24 A2989 RMK AO2 RAB28 SLP119 P0000 60000 T02610244 55005


Station Type Date Time Source
KMCO Decoded METAR 2023/09/28 20:53 UTC NOAA

ORLANDO INTERNATIONAL AIRPORT , FL, United States (KMCO) 28-25N 81-20W 29M
Sep 28, 2023 - 04:53 PM EDT / 2023.09.28 2053 UTC
Wind: from the N (010 degrees) at 14 MPH (12 KT):0
Visibility: 4 mile(s):0
Sky conditions: mostly cloudy
Weather: light rain; mist
Precipitation last hour: A trace
Temperature: 79.0 F (26.1 C)
Dew Point: 75.9 F (24.4 C)
Relative Humidity: 90%
Pressure (altimeter): 29.89 in. Hg (1012 hPa)
Pressure tendency: 0.01 inches (0.5 hPa) lower than three hours ago
ob: KMCO 282053Z 01012KT 4SM R35L/5000VP6000FT -RA BR BKN011 BKN036 26/24 A2989 RMK AO2 RAB28 SLP119 P0000 60000 T02610244 55005
cycle: 21

Station Type Date Time Source
KMCO TAF 2023/09/28 21:53 UTC NOAA

TAF
AMD KMCO 282053Z 2821/2924 34013G18KT P6SM VCTS SCT015 BKN025CB
TEMPO 2821/2824 5SM TSRA BKN009 BKN015CB
FM290000 36005KT P6SM VCSH SCT020 BKN030
FM290400 01004KT P6SM SCT025 BKN060
FM291600 04008KT P6SM VCSH SCT030 BKN050
FM291800 05009KT P6SM VCTS BKN035CB BKN150

Example: see airport list